Saturday, February 24, 2018, 10:42 PM EST
Back to Local

KSMQ, Somerville Somerset Airport

Location: Bedminster, NJ, United States Lat: 40.617
Local Time: 10:42 PM EST ( 3:42 GMT) Lon: -74.667
Time Zone: US/Eastern Elev: 104 ft

Show me the last for .
Show Decoded

2018-02-24 21:53 METAR KSMQ 250253Z AUTO 04004KT 4SM -RA BR OVC027 07/06 A3019 RMK AO2 RAB19
                 SLP226 P0001 60001 T00670061 53009 =
2018-02-24 21:43 METAR KSMQ 250243Z AUTO 00000KT 4SM -RA BR OVC029 07/07 A3020 RMK AO2 RAB19
                 P0001 T00670067 =
2018-02-24 20:53 METAR KSMQ 250153Z AUTO 36005KT 8SM OVC065 07/06 A3018 RMK AO2 SLP221 T00670061
                 =
2018-02-24 19:53 METAR KSMQ 250053Z AUTO 00000KT 4SM BR OVC060 07/07 A3018 RMK AO2 RAB23E36
                 SLP222 P0000 T00670067 =
2018-02-24 18:53 METAR KSMQ 242353Z AUTO 00000KT 7SM OVC060 07/07 A3017 RMK AO2 SLP217 60004
                 T00720067 10117 20072 51003 =
2018-02-24 17:53 METAR KSMQ 242253Z AUTO 00000KT 10SM OVC060 08/07 A3015 RMK AO2 RAE20 SLP211
                 P0000 T00780067 =
2018-02-24 16:53 METAR KSMQ 242153Z AUTO 35004KT 4SM -RA BR BKN055 OVC070 08/07 A3018 RMK AO2
                 SLP221 P0001 T00830072 =
2018-02-24 15:53 METAR KSMQ 242053Z AUTO 36004KT 8SM -RA OVC055 09/07 A3016 RMK AO2 SLP214 P0003
                 60003 T00940072 53014 =
2018-02-24 14:53 METAR KSMQ 241953Z AUTO 00000KT 10SM -RA OVC065 11/06 A3013 RMK AO2 RAE02B47
                 SLP203 P0000 T01060056 =
2018-02-24 13:53 METAR KSMQ 241853Z AUTO 02003KT 10SM -RA OVC070 11/06 A3013 RMK AO2 RAB42 PRESFR
                 SLP205 P0000 T01060061 =
2018-02-24 12:53 METAR KSMQ 241753Z AUTO 06003KT 10SM OVC070 11/07 A3012 RMK AO2 RAB03E49 PRESFR
                 SLP200 P0000 60000 T01060072 10106 20056 58014 =
2018-02-24 11:53 METAR KSMQ 241653Z AUTO 36004KT 10SM BKN080 OVC095 11/07 A3016 RMK AO2 RAB31E53
                 SLP214 P0000 T01060067 =
2018-02-24 10:53 METAR KSMQ 241553Z AUTO 33008KT 10SM SCT085 OVC110 11/06 A3015 RMK AO2 SLP213
                 T01060061 =
2018-02-24 09:53 METAR KSMQ 241453Z AUTO 00000KT 10SM OVC090 09/07 A3016 RMK AO2 SLP214 T00940067
                 56006 =
2018-02-24 09:10 METAR KSMQ 241410Z AUTO 00000KT 7SM FEW008 09/07 A3016 RMK AO2 T00890072 =
2018-02-24 08:53 METAR KSMQ 241353Z AUTO 00000KT 6SM BR CLR 08/07 A3016 RMK AO2 SLP214 T00830072
                 =
2018-02-24 08:24 METAR KSMQ 241324Z AUTO 00000KT 4SM BR SCT007 06/06 A3017 RMK AO2 T00610061 =
2018-02-24 08:12 METAR KSMQ 241312Z AUTO 2 1/2SM BR SCT007 06/06 A3017 RMK AO2 T00610056 =
2018-02-24 08:03 METAR KSMQ 241303Z AUTO 00000KT 2 1/2SM BR CLR 06/05 A3017 RMK AO2 T00560050 =
2018-02-24 07:53 METAR KSMQ 241253Z AUTO 00000KT 3SM BR CLR 06/06 A3017 RMK AO2 SLP217 T00560056
                 =
2018-02-24 07:28 METAR KSMQ 241228Z AUTO 00000KT 4SM BR SCT010 06/06 A3017 RMK AO2 T00610061 =
2018-02-24 06:53 METAR KSMQ 241153Z AUTO 00000KT 4SM BR OVC009 06/06 A3017 RMK AO2 SLP219 70010
                 T00560056 10061 20039 50008 =
2018-02-24 06:51 METAR KSMQ 241151Z AUTO 00000KT 4SM BR OVC009 06/06 A3018 RMK AO2 =
2018-02-24 06:43 METAR KSMQ 241143Z AUTO 2SM BR OVC009 05/05 A3017 RMK AO2 T00500050 =
2018-02-24 06:34 METAR KSMQ 241134Z AUTO 00000KT 1 3/4SM BR OVC010 04/04 A3017 RMK AO2 T00390039
                 =
2018-02-24 05:53 METAR KSMQ 241053Z AUTO 00000KT 4SM BR OVC011 04/04 A3016 RMK AO2 SLP214
                 T00440044 =
2018-02-24 05:10 METAR KSMQ 241010Z AUTO 00000KT 6SM BR OVC014 06/05 A3015 RMK AO2 T00560050 =
2018-02-24 04:53 METAR KSMQ 240953Z AUTO 00000KT 6SM BR OVC015 06/06 A3015 RMK AO2 SLP211
                 T00560056 =
2018-02-24 04:33 METAR KSMQ 240933Z AUTO 00000KT 6SM BR OVC015 06/06 A3015 RMK AO2 T00610056 =
2018-02-24 03:53 METAR KSMQ 240853Z AUTO 00000KT 6SM BR OVC010 06/06 A3015 RMK AO2 SLP211
                 T00560056 56013 =
2018-02-24 03:26 METAR KSMQ 240826Z AUTO 00000KT 6SM BR OVC010 06/06 A3015 RMK AO2 T00560056 =
2018-02-24 02:53 METAR KSMQ 240753Z AUTO VRB03KT 6SM BR OVC009 06/06 A3016 RMK AO2 SLP215
                 T00560056 =
2018-02-24 01:53 METAR KSMQ 240653Z AUTO VRB03KT 7SM OVC008 05/05 A3018 RMK AO2 SLP220 T00500050
                 =
2018-02-24 01:03 METAR KSMQ 240603Z AUTO VRB04KT 4SM BR OVC007 04/04 A3018 RMK AO2 CIG 004V010
                 T00440044 =
2018-02-24 00:53 METAR KSMQ 240553Z AUTO VRB03KT 2 1/2SM BR OVC005 04/04 A3019 RMK AO2 SLP224
                 T00390039 10039 20033 55008 =
2018-02-24 00:50 METAR KSMQ 240550Z AUTO 00000KT 2 1/2SM BR OVC005 04/04 A3019 RMK AO2 =
2018-02-24 00:40 METAR KSMQ 240540Z AUTO 00000KT 3SM BR OVC005 04/04 A3018 RMK AO2 T00390039 =
2018-02-24 00:27 METAR KSMQ 240527Z AUTO 00000KT 1SM BR VV005 04/04 A3019 RMK AO2 T00390039 =
2018-02-24 00:11 METAR KSMQ 240511Z AUTO 00000KT 3/4SM BR VV004 04/04 A3018 RMK AO2 T00390039 =
2018-02-23 23:53 METAR KSMQ 240453Z AUTO 00000KT 3/4SM BR VV005 04/04 A3018 RMK AO2 SLP222
                 T00390039 400390022 =
2018-02-23 23:22 METAR KSMQ 240422Z AUTO 00000KT 1 1/2SM BR OVC006 04/04 A3019 RMK AO2 T00390039
                 =
2018-02-23 23:02 METAR KSMQ 240402Z AUTO 00000KT 2 1/2SM BR OVC006 04/04 A3020 RMK AO2 T00390039
                 =
2018-02-23 22:53 METAR KSMQ 240353Z AUTO 00000KT 1 3/4SM BR OVC005 04/04 A3021 RMK AO2 SLP232
                 T00390039 =

Support USWX by starting your Amazon purchase here.